sensor_id;sensor_type;location;lat;lon;timestamp;P1;durP1;ratioP1;P2;durP2;ratioP2
17482;SDS011;8858;52.308;20.994;2023-02-08T00:02:03;26.70;;;18.00;;
17482;SDS011;8858;52.308;20.994;2023-02-08T00:04:31;33.53;;;18.80;;
17482;SDS011;8858;52.308;20.994;2023-02-08T00:07:00;30.30;;;18.70;;
17482;SDS011;8858;52.308;20.994;2023-02-08T00:09:28;29.90;;;18.97;;
17482;SDS011;8858;52.308;20.994;2023-02-08T00:11:56;31.53;;;19.67;;
17482;SDS011;8858;52.308;20.994;2023-02-08T00:14:28;35.53;;;20.87;;
17482;SDS011;8858;52.308;20.994;2023-02-08T00:16:57;33.50;;;20.50;;
17482;SDS011;8858;52.308;20.994;2023-02-08T00:19:26;32.03;;;20.03;;
17482;SDS011;8858;52.308;20.994;2023-02-08T00:21:54;34.37;;;20.03;;
17482;SDS011;8858;52.308;20.994;2023-02-08T00:24:24;30.77;;;19.73;;
17482;SDS011;8858;52.308;20.994;2023-02-08T00:26:54;32.17;;;20.57;;
17482;SDS011;8858;52.308;20.994;2023-02-08T00:29:23;33.47;;;20.90;;
17482;SDS011;8858;52.308;20.994;2023-02-08T00:31:53;34.77;;;21.33;;
17482;SDS011;8858;52.308;20.994;2023-02-08T00:34:22;33.00;;;21.60;;
17482;SDS011;8858;52.308;20.994;2023-02-08T00:36:51;34.27;;;21.80;;
17482;SDS011;8858;52.308;20.994;2023-02-08T00:39:23;36.57;;;21.67;;
17482;SDS011;8858;52.308;20.994;2023-02-08T00:41:52;34.87;;;21.87;;
17482;SDS011;8858;52.308;20.994;2023-02-08T00:44:21;34.60;;;20.57;;
17482;SDS011;8858;52.308;20.994;2023-02-08T00:46:53;32.33;;;21.40;;
17482;SDS011;8858;52.308;20.994;2023-02-08T00:49:22;40.27;;;22.77;;
17482;SDS011;8858;52.308;20.994;2023-02-08T00:51:51;30.90;;;20.73;;
17482;SDS011;8858;52.308;20.994;2023-02-08T00:54:20;31.63;;;20.90;;
17482;SDS011;8858;52.308;20.994;2023-02-08T00:56:48;33.63;;;20.80;;
17482;SDS011;8858;52.308;20.994;2023-02-08T00:59:17;31.73;;;21.30;;
17482;SDS011;8858;52.308;20.994;2023-02-08T01:01:46;32.03;;;21.33;;
17482;SDS011;8858;52.308;20.994;2023-02-08T01:04:19;31.67;;;20.17;;
17482;SDS011;8858;52.308;20.994;2023-02-08T01:06:47;32.87;;;20.33;;
17482;SDS011;8858;52.308;20.994;2023-02-08T01:09:16;30.93;;;19.63;;
17482;SDS011;8858;52.308;20.994;2023-02-08T01:11:47;34.13;;;20.50;;
17482;SDS011;8858;52.308;20.994;2023-02-08T01:14:16;31.23;;;19.90;;
17482;SDS011;8858;52.308;20.994;2023-02-08T01:16:44;33.50;;;20.73;;
17482;SDS011;8858;52.308;20.994;2023-02-08T01:19:13;30.10;;;18.90;;
17482;SDS011;8858;52.308;20.994;2023-02-08T01:21:43;32.30;;;20.73;;
17482;SDS011;8858;52.308;20.994;2023-02-08T01:24:14;28.23;;;19.93;;
17482;SDS011;8858;52.308;20.994;2023-02-08T01:26:43;29.83;;;19.63;;
17482;SDS011;8858;52.308;20.994;2023-02-08T01:29:14;29.53;;;18.73;;
17482;SDS011;8858;52.308;20.994;2023-02-08T01:31:43;28.30;;;17.93;;
17482;SDS011;8858;52.308;20.994;2023-02-08T01:34:12;32.13;;;20.10;;
17482;SDS011;8858;52.308;20.994;2023-02-08T01:36:43;30.23;;;19.23;;
17482;SDS011;8858;52.308;20.994;2023-02-08T01:39:11;33.17;;;19.60;;
17482;SDS011;8858;52.308;20.994;2023-02-08T01:41:40;27.43;;;18.03;;
17482;SDS011;8858;52.308;20.994;2023-02-08T01:47:19;28.17;;;17.87;;
17482;SDS011;8858;52.308;20.994;2023-02-08T01:49:49;26.80;;;16.97;;
17482;SDS011;8858;52.308;20.994;2023-02-08T01:52:19;23.27;;;15.67;;
17482;SDS011;8858;52.308;20.994;2023-02-08T01:54:56;27.87;;;16.27;;
17482;SDS011;8858;52.308;20.994;2023-02-08T01:57:29;24.00;;;15.43;;
17482;SDS011;8858;52.308;20.994;2023-02-08T01:59:59;25.10;;;16.03;;
17482;SDS011;8858;52.308;20.994;2023-02-08T02:02:39;23.47;;;14.10;;
17482;SDS011;8858;52.308;20.994;2023-02-08T02:05:10;27.63;;;16.23;;
17482;SDS011;8858;52.308;20.994;2023-02-08T02:07:40;22.53;;;15.53;;
17482;SDS011;8858;52.308;20.994;2023-02-08T02:10:11;24.13;;;15.53;;
17482;SDS011;8858;52.308;20.994;2023-02-08T02:12:43;29.00;;;15.40;;
17482;SDS011;8858;52.308;20.994;2023-02-08T02:15:11;22.80;;;14.73;;
17482;SDS011;8858;52.308;20.994;2023-02-08T02:17:41;25.47;;;16.73;;
17482;SDS011;8858;52.308;20.994;2023-02-08T02:20:14;24.57;;;15.97;;
17482;SDS011;8858;52.308;20.994;2023-02-08T02:25:51;23.30;;;14.90;;
17482;SDS011;8858;52.308;20.994;2023-02-08T02:29:00;25.57;;;15.90;;
17482;SDS011;8858;52.308;20.994;2023-02-08T02:31:59;21.80;;;15.37;;
17482;SDS011;8858;52.308;20.994;2023-02-08T02:34:49;24.47;;;15.27;;
17482;SDS011;8858;52.308;20.994;2023-02-08T02:37:29;22.07;;;14.90;;
17482;SDS011;8858;52.308;20.994;2023-02-08T02:40:09;23.20;;;15.57;;
17482;SDS011;8858;52.308;20.994;2023-02-08T02:42:46;24.90;;;15.63;;
17482;SDS011;8858;52.308;20.994;2023-02-08T02:45:45;22.80;;;16.43;;
17482;SDS011;8858;52.308;20.994;2023-02-08T02:48:19;23.27;;;16.47;;
17482;SDS011;8858;52.308;20.994;2023-02-08T02:50:54;25.80;;;16.37;;
17482;SDS011;8858;52.308;20.994;2023-02-08T02:53:27;24.10;;;16.30;;
17482;SDS011;8858;52.308;20.994;2023-02-08T02:56:01;28.73;;;16.77;;
17482;SDS011;8858;52.308;20.994;2023-02-08T02:58:33;25.87;;;16.87;;
17482;SDS011;8858;52.308;20.994;2023-02-08T03:01:04;27.87;;;16.77;;
17482;SDS011;8858;52.308;20.994;2023-02-08T03:03:34;29.47;;;16.73;;
17482;SDS011;8858;52.308;20.994;2023-02-08T03:06:04;26.47;;;16.83;;
17482;SDS011;8858;52.308;20.994;2023-02-08T03:11:34;27.33;;;16.80;;
17482;SDS011;8858;52.308;20.994;2023-02-08T03:17:09;28.77;;;16.90;;
17482;SDS011;8858;52.308;20.994;2023-02-08T03:19:53;25.27;;;16.17;;
17482;SDS011;8858;52.308;20.994;2023-02-08T03:22:30;25.30;;;16.67;;
17482;SDS011;8858;52.308;20.994;2023-02-08T03:25:10;28.53;;;17.80;;
17482;SDS011;8858;52.308;20.994;2023-02-08T03:27:47;26.30;;;17.00;;
17482;SDS011;8858;52.308;20.994;2023-02-08T03:30:25;28.80;;;17.00;;
17482;SDS011;8858;52.308;20.994;2023-02-08T03:33:00;28.87;;;17.23;;
17482;SDS011;8858;52.308;20.994;2023-02-08T03:35:35;25.57;;;16.57;;
17482;SDS011;8858;52.308;20.994;2023-02-08T03:38:09;28.67;;;18.23;;
17482;SDS011;8858;52.308;20.994;2023-02-08T03:40:42;26.83;;;17.50;;
17482;SDS011;8858;52.308;20.994;2023-02-08T03:43:15;25.60;;;17.47;;
17482;SDS011;8858;52.308;20.994;2023-02-08T03:45:48;27.63;;;16.90;;
17482;SDS011;8858;52.308;20.994;2023-02-08T03:48:22;27.67;;;18.17;;
17482;SDS011;8858;52.308;20.994;2023-02-08T03:50:54;27.30;;;16.90;;
17482;SDS011;8858;52.308;20.994;2023-02-08T03:53:25;27.33;;;17.63;;
17482;SDS011;8858;52.308;20.994;2023-02-08T03:55:57;26.40;;;17.87;;
17482;SDS011;8858;52.308;20.994;2023-02-08T03:58:33;29.33;;;17.80;;
17482;SDS011;8858;52.308;20.994;2023-02-08T04:01:11;30.70;;;17.97;;
17482;SDS011;8858;52.308;20.994;2023-02-08T04:03:44;30.27;;;18.70;;
17482;SDS011;8858;52.308;20.994;2023-02-08T04:06:17;27.67;;;17.33;;
17482;SDS011;8858;52.308;20.994;2023-02-08T04:08:49;29.57;;;19.17;;
17482;SDS011;8858;52.308;20.994;2023-02-08T04:11:19;28.50;;;18.97;;
17482;SDS011;8858;52.308;20.994;2023-02-08T04:13:48;30.13;;;18.50;;
17482;SDS011;8858;52.308;20.994;2023-02-08T04:16:17;27.60;;;18.30;;
17482;SDS011;8858;52.308;20.994;2023-02-08T04:18:45;31.63;;;17.77;;
17482;SDS011;8858;52.308;20.994;2023-02-08T04:21:18;33.17;;;20.03;;
17482;SDS011;8858;52.308;20.994;2023-02-08T04:23:48;32.27;;;17.73;;
17482;SDS011;8858;52.308;20.994;2023-02-08T04:26:17;33.97;;;18.47;;
17482;SDS011;8858;52.308;20.994;2023-02-08T04:28:46;29.50;;;18.83;;
17482;SDS011;8858;52.308;20.994;2023-02-08T04:31:15;26.30;;;17.90;;
17482;SDS011;8858;52.308;20.994;2023-02-08T04:33:44;26.43;;;18.80;;
17482;SDS011;8858;52.308;20.994;2023-02-08T04:36:18;30.23;;;18.07;;
17482;SDS011;8858;52.308;20.994;2023-02-08T04:38:49;35.03;;;20.13;;
17482;SDS011;8858;52.308;20.994;2023-02-08T04:41:17;37.63;;;21.10;;
17482;SDS011;8858;52.308;20.994;2023-02-08T04:43:46;30.80;;;19.10;;
17482;SDS011;8858;52.308;20.994;2023-02-08T04:46:15;33.77;;;19.27;;
17482;SDS011;8858;52.308;20.994;2023-02-08T04:48:45;29.03;;;19.53;;
17482;SDS011;8858;52.308;20.994;2023-02-08T04:51:13;32.57;;;20.03;;
17482;SDS011;8858;52.308;20.994;2023-02-08T04:53:43;32.03;;;19.67;;
17482;SDS011;8858;52.308;20.994;2023-02-08T04:56:12;27.93;;;18.90;;
17482;SDS011;8858;52.308;20.994;2023-02-08T04:58:41;27.97;;;19.17;;
17482;SDS011;8858;52.308;20.994;2023-02-08T05:01:11;28.33;;;18.73;;
17482;SDS011;8858;52.308;20.994;2023-02-08T05:03:41;31.10;;;19.70;;
17482;SDS011;8858;52.308;20.994;2023-02-08T05:06:10;31.87;;;19.37;;
17482;SDS011;8858;52.308;20.994;2023-02-08T05:08:38;34.63;;;18.80;;
17482;SDS011;8858;52.308;20.994;2023-02-08T05:11:08;32.13;;;19.23;;
17482;SDS011;8858;52.308;20.994;2023-02-08T05:13:40;35.50;;;19.90;;
17482;SDS011;8858;52.308;20.994;2023-02-08T05:16:09;31.57;;;21.20;;
17482;SDS011;8858;52.308;20.994;2023-02-08T05:18:37;38.83;;;21.67;;
17482;SDS011;8858;52.308;20.994;2023-02-08T05:21:05;39.93;;;23.03;;
17482;SDS011;8858;52.308;20.994;2023-02-08T05:23:37;35.70;;;22.15;;
17482;SDS011;8858;52.308;20.994;2023-02-08T05:26:06;35.33;;;23.10;;
17482;SDS011;8858;52.308;20.994;2023-02-08T05:28:36;34.53;;;21.13;;
17482;SDS011;8858;52.308;20.994;2023-02-08T05:31:09;29.10;;;19.00;;
17482;SDS011;8858;52.308;20.994;2023-02-08T05:33:38;31.50;;;19.43;;
17482;SDS011;8858;52.308;20.994;2023-02-08T05:36:06;31.80;;;19.67;;
17482;SDS011;8858;52.308;20.994;2023-02-08T05:38:36;34.30;;;20.97;;
17482;SDS011;8858;52.308;20.994;2023-02-08T05:41:05;36.43;;;21.73;;
17482;SDS011;8858;52.308;20.994;2023-02-08T05:43:34;34.20;;;20.47;;
17482;SDS011;8858;52.308;20.994;2023-02-08T05:46:03;33.27;;;20.90;;
17482;SDS011;8858;52.308;20.994;2023-02-08T05:48:34;31.63;;;20.83;;
17482;SDS011;8858;52.308;20.994;2023-02-08T05:51:04;30.40;;;20.43;;
17482;SDS011;8858;52.308;20.994;2023-02-08T05:53:33;29.60;;;21.03;;
17482;SDS011;8858;52.308;20.994;2023-02-08T05:56:02;33.70;;;21.93;;
17482;SDS011;8858;52.308;20.994;2023-02-08T05:58:30;35.63;;;21.90;;
17482;SDS011;8858;52.308;20.994;2023-02-08T06:01:02;35.53;;;22.33;;
17482;SDS011;8858;52.308;20.994;2023-02-08T06:03:34;35.63;;;21.23;;
17482;SDS011;8858;52.308;20.994;2023-02-08T06:06:03;43.43;;;24.47;;
17482;SDS011;8858;52.308;20.994;2023-02-08T06:08:31;43.30;;;27.60;;
17482;SDS011;8858;52.308;20.994;2023-02-08T06:11:04;45.97;;;28.67;;
17482;SDS011;8858;52.308;20.994;2023-02-08T06:13:33;44.83;;;26.90;;
17482;SDS011;8858;52.308;20.994;2023-02-08T06:16:03;43.37;;;27.47;;
17482;SDS011;8858;52.308;20.994;2023-02-08T06:18:32;48.57;;;30.43;;
17482;SDS011;8858;52.308;20.994;2023-02-08T06:21:00;43.43;;;27.67;;
17482;SDS011;8858;52.308;20.994;2023-02-08T06:23:29;42.17;;;24.53;;
17482;SDS011;8858;52.308;20.994;2023-02-08T06:26:02;87.47;;;49.23;;
17482;SDS011;8858;52.308;20.994;2023-02-08T06:28:30;50.53;;;30.57;;
17482;SDS011;8858;52.308;20.994;2023-02-08T06:30:58;45.00;;;28.80;;
17482;SDS011;8858;52.308;20.994;2023-02-08T06:33:28;43.53;;;27.83;;
17482;SDS011;8858;52.308;20.994;2023-02-08T06:35:56;46.00;;;28.03;;
17482;SDS011;8858;52.308;20.994;2023-02-08T06:38:28;52.80;;;29.20;;
17482;SDS011;8858;52.308;20.994;2023-02-08T06:40:57;44.03;;;26.77;;
17482;SDS011;8858;52.308;20.994;2023-02-08T06:43:26;42.73;;;26.20;;
17482;SDS011;8858;52.308;20.994;2023-02-08T06:45:54;39.70;;;25.87;;
17482;SDS011;8858;52.308;20.994;2023-02-08T06:48:23;39.63;;;24.80;;
17482;SDS011;8858;52.308;20.994;2023-02-08T06:50:56;42.23;;;24.80;;
17482;SDS011;8858;52.308;20.994;2023-02-08T06:53:24;40.57;;;24.83;;
17482;SDS011;8858;52.308;20.994;2023-02-08T06:55:53;35.83;;;24.87;;
17482;SDS011;8858;52.308;20.994;2023-02-08T06:58:22;35.77;;;24.50;;
17482;SDS011;8858;52.308;20.994;2023-02-08T07:00:50;38.77;;;25.50;;
17482;SDS011;8858;52.308;20.994;2023-02-08T07:03:19;37.20;;;24.77;;
17482;SDS011;8858;52.308;20.994;2023-02-08T07:05:52;38.10;;;25.47;;
17482;SDS011;8858;52.308;20.994;2023-02-08T07:08:34;43.30;;;26.27;;
17482;SDS011;8858;52.308;20.994;2023-02-08T07:11:05;39.80;;;26.23;;
17482;SDS011;8858;52.308;20.994;2023-02-08T07:13:38;41.33;;;25.77;;
17482;SDS011;8858;52.308;20.994;2023-02-08T07:16:06;44.87;;;27.43;;
17482;SDS011;8858;52.308;20.994;2023-02-08T07:18:36;39.40;;;25.57;;
17482;SDS011;8858;52.308;20.994;2023-02-08T07:21:05;39.80;;;25.47;;
17482;SDS011;8858;52.308;20.994;2023-02-08T07:23:37;37.90;;;24.93;;
17482;SDS011;8858;52.308;20.994;2023-02-08T07:26:11;39.77;;;25.00;;
17482;SDS011;8858;52.308;20.994;2023-02-08T07:28:40;35.23;;;22.97;;
17482;SDS011;8858;52.308;20.994;2023-02-08T07:31:10;37.10;;;22.70;;
17482;SDS011;8858;52.308;20.994;2023-02-08T07:33:44;36.27;;;21.77;;
17482;SDS011;8858;52.308;20.994;2023-02-08T07:36:13;31.57;;;21.33;;
17482;SDS011;8858;52.308;20.994;2023-02-08T07:38:42;28.27;;;19.40;;
17482;SDS011;8858;52.308;20.994;2023-02-08T07:41:11;28.07;;;18.80;;
17482;SDS011;8858;52.308;20.994;2023-02-08T07:43:45;28.63;;;17.37;;
17482;SDS011;8858;52.308;20.994;2023-02-08T07:46:14;25.50;;;15.93;;
17482;SDS011;8858;52.308;20.994;2023-02-08T07:48:44;23.87;;;15.20;;
17482;SDS011;8858;52.308;20.994;2023-02-08T07:51:14;22.23;;;14.37;;
17482;SDS011;8858;52.308;20.994;2023-02-08T07:53:44;25.17;;;16.30;;
17482;SDS011;8858;52.308;20.994;2023-02-08T07:56:13;24.50;;;16.07;;
17482;SDS011;8858;52.308;20.994;2023-02-08T07:58:42;26.63;;;14.97;;
17482;SDS011;8858;52.308;20.994;2023-02-08T08:01:11;25.57;;;16.47;;
17482;SDS011;8858;52.308;20.994;2023-02-08T08:03:48;26.73;;;17.00;;
17482;SDS011;8858;52.308;20.994;2023-02-08T08:06:17;24.33;;;15.57;;
17482;SDS011;8858;52.308;20.994;2023-02-08T08:08:47;24.30;;;16.47;;
17482;SDS011;8858;52.308;20.994;2023-02-08T08:11:17;22.53;;;15.97;;
17482;SDS011;8858;52.308;20.994;2023-02-08T08:13:49;20.87;;;15.50;;
17482;SDS011;8858;52.308;20.994;2023-02-08T08:16:18;22.03;;;15.37;;
17482;SDS011;8858;52.308;20.994;2023-02-08T08:18:47;23.37;;;16.40;;
17482;SDS011;8858;52.308;20.994;2023-02-08T08:21:16;23.73;;;17.13;;
17482;SDS011;8858;52.308;20.994;2023-02-08T08:23:45;21.93;;;15.57;;
17482;SDS011;8858;52.308;20.994;2023-02-08T08:26:15;23.67;;;16.83;;
17482;SDS011;8858;52.308;20.994;2023-02-08T08:28:46;24.00;;;16.37;;
17482;SDS011;8858;52.308;20.994;2023-02-08T08:31:16;22.97;;;16.70;;
17482;SDS011;8858;52.308;20.994;2023-02-08T08:33:45;29.97;;;17.20;;
17482;SDS011;8858;52.308;20.994;2023-02-08T08:36:15;23.03;;;16.77;;
17482;SDS011;8858;52.308;20.994;2023-02-08T08:38:45;24.37;;;17.63;;
17482;SDS011;8858;52.308;20.994;2023-02-08T08:41:15;27.17;;;19.00;;
17482;SDS011;8858;52.308;20.994;2023-02-08T08:43:44;24.13;;;17.77;;
17482;SDS011;8858;52.308;20.994;2023-02-08T08:46:12;27.90;;;18.30;;
17482;SDS011;8858;52.308;20.994;2023-02-08T08:48:42;27.80;;;19.13;;
17482;SDS011;8858;52.308;20.994;2023-02-08T08:51:11;25.80;;;18.13;;
17482;SDS011;8858;52.308;20.994;2023-02-08T08:53:41;23.87;;;17.30;;
17482;SDS011;8858;52.308;20.994;2023-02-08T08:56:09;23.77;;;17.63;;
17482;SDS011;8858;52.308;20.994;2023-02-08T08:58:39;26.60;;;16.93;;
17482;SDS011;8858;52.308;20.994;2023-02-08T09:01:12;24.80;;;18.23;;
17482;SDS011;8858;52.308;20.994;2023-02-08T09:03:41;26.87;;;18.90;;
17482;SDS011;8858;52.308;20.994;2023-02-08T09:06:09;29.50;;;18.07;;
17482;SDS011;8858;52.308;20.994;2023-02-08T09:08:37;24.90;;;17.93;;
17482;SDS011;8858;52.308;20.994;2023-02-08T09:11:07;30.40;;;18.93;;
17482;SDS011;8858;52.308;20.994;2023-02-08T09:13:40;27.53;;;18.00;;
17482;SDS011;8858;52.308;20.994;2023-02-08T09:16:11;27.53;;;18.60;;
17482;SDS011;8858;52.308;20.994;2023-02-08T09:18:41;26.17;;;18.73;;
17482;SDS011;8858;52.308;20.994;2023-02-08T09:21:10;26.30;;;18.57;;
17482;SDS011;8858;52.308;20.994;2023-02-08T09:23:42;28.17;;;19.80;;
17482;SDS011;8858;52.308;20.994;2023-02-08T09:26:13;25.97;;;18.97;;
17482;SDS011;8858;52.308;20.994;2023-02-08T09:28:46;26.90;;;18.63;;
17482;SDS011;8858;52.308;20.994;2023-02-08T09:31:17;29.63;;;20.07;;
17482;SDS011;8858;52.308;20.994;2023-02-08T09:33:47;29.23;;;19.67;;
17482;SDS011;8858;52.308;20.994;2023-02-08T09:36:17;28.20;;;19.47;;
17482;SDS011;8858;52.308;20.994;2023-02-08T09:38:46;29.27;;;20.20;;
17482;SDS011;8858;52.308;20.994;2023-02-08T09:41:22;25.67;;;18.73;;
17482;SDS011;8858;52.308;20.994;2023-02-08T09:44:09;28.37;;;19.10;;
17482;SDS011;8858;52.308;20.994;2023-02-08T09:46:48;28.23;;;19.73;;
17482;SDS011;8858;52.308;20.994;2023-02-08T09:49:26;28.70;;;18.47;;
17482;SDS011;8858;52.308;20.994;2023-02-08T09:51:59;25.47;;;17.97;;
17482;SDS011;8858;52.308;20.994;2023-02-08T09:54:34;25.00;;;16.97;;
17482;SDS011;8858;52.308;20.994;2023-02-08T09:57:07;26.13;;;17.63;;
17482;SDS011;8858;52.308;20.994;2023-02-08T09:59:43;24.90;;;17.17;;
17482;SDS011;8858;52.308;20.994;2023-02-08T10:02:22;23.40;;;15.43;;
17482;SDS011;8858;52.308;20.994;2023-02-08T10:04:56;21.47;;;15.27;;
17482;SDS011;8858;52.308;20.994;2023-02-08T10:07:29;23.30;;;15.60;;
17482;SDS011;8858;52.308;20.994;2023-02-08T10:09:58;21.27;;;15.83;;
17482;SDS011;8858;52.308;20.994;2023-02-08T10:12:32;26.03;;;16.40;;
17482;SDS011;8858;52.308;20.994;2023-02-08T10:15:14;27.57;;;17.00;;
17482;SDS011;8858;52.308;20.994;2023-02-08T10:18:06;24.27;;;16.83;;
17482;SDS011;8858;52.308;20.994;2023-02-08T10:20:53;26.13;;;17.70;;
17482;SDS011;8858;52.308;20.994;2023-02-08T10:23:34;24.77;;;16.67;;
17482;SDS011;8858;52.308;20.994;2023-02-08T10:26:16;22.67;;;15.50;;
17482;SDS011;8858;52.308;20.994;2023-02-08T10:29:03;23.93;;;15.40;;
17482;SDS011;8858;52.308;20.994;2023-02-08T10:32:00;21.30;;;15.53;;
17482;SDS011;8858;52.308;20.994;2023-02-08T10:34:43;20.77;;;15.50;;
17482;SDS011;8858;52.308;20.994;2023-02-08T10:37:14;21.53;;;15.63;;
17482;SDS011;8858;52.308;20.994;2023-02-08T10:39:46;11.37;;;8.17;;
17482;SDS011;8858;52.308;20.994;2023-02-08T10:42:17;11.00;;;8.07;;
17482;SDS011;8858;52.308;20.994;2023-02-08T10:44:50;10.70;;;8.00;;
17482;SDS011;8858;52.308;20.994;2023-02-08T10:47:31;11.03;;;8.47;;
17482;SDS011;8858;52.308;20.994;2023-02-08T10:50:06;10.63;;;7.47;;
17482;SDS011;8858;52.308;20.994;2023-02-08T10:52:42;7.80;;;5.60;;
17482;SDS011;8858;52.308;20.994;2023-02-08T10:55:11;6.80;;;4.60;;
17482;SDS011;8858;52.308;20.994;2023-02-08T10:57:41;4.07;;;3.27;;
17482;SDS011;8858;52.308;20.994;2023-02-08T11:00:12;5.13;;;3.30;;
17482;SDS011;8858;52.308;20.994;2023-02-08T11:02:49;4.93;;;3.57;;
17482;SDS011;8858;52.308;20.994;2023-02-08T11:05:19;3.50;;;3.17;;
17482;SDS011;8858;52.308;20.994;2023-02-08T11:08:05;3.77;;;3.47;;
17482;SDS011;8858;52.308;20.994;2023-02-08T11:10:36;4.07;;;3.47;;
17482;SDS011;8858;52.308;20.994;2023-02-08T11:13:14;3.40;;;3.10;;
17482;SDS011;8858;52.308;20.994;2023-02-08T11:15:45;4.17;;;3.20;;
17482;SDS011;8858;52.308;20.994;2023-02-08T11:18:19;6.53;;;4.43;;
17482;SDS011;8858;52.308;20.994;2023-02-08T11:20:51;10.27;;;6.10;;
17482;SDS011;8858;52.308;20.994;2023-02-08T11:23:24;6.70;;;4.67;;
17482;SDS011;8858;52.308;20.994;2023-02-08T11:26:11;6.27;;;4.50;;
17482;SDS011;8858;52.308;20.994;2023-02-08T11:28:43;4.20;;;3.60;;
17482;SDS011;8858;52.308;20.994;2023-02-08T11:31:25;4.70;;;3.60;;
17482;SDS011;8858;52.308;20.994;2023-02-08T11:33:59;4.27;;;3.50;;
17482;SDS011;8858;52.308;20.994;2023-02-08T11:36:29;4.17;;;3.30;;
17482;SDS011;8858;52.308;20.994;2023-02-08T11:39:00;6.93;;;3.97;;
17482;SDS011;8858;52.308;20.994;2023-02-08T11:41:30;6.87;;;4.83;;
17482;SDS011;8858;52.308;20.994;2023-02-08T11:44:00;6.60;;;4.40;;
17482;SDS011;8858;52.308;20.994;2023-02-08T11:46:32;7.03;;;4.50;;
17482;SDS011;8858;52.308;20.994;2023-02-08T11:49:03;5.30;;;4.50;;
17482;SDS011;8858;52.308;20.994;2023-02-08T11:51:32;6.67;;;4.77;;
17482;SDS011;8858;52.308;20.994;2023-02-08T11:54:05;6.47;;;4.90;;
17482;SDS011;8858;52.308;20.994;2023-02-08T11:56:33;6.43;;;4.70;;
17482;SDS011;8858;52.308;20.994;2023-02-08T11:59:04;7.50;;;5.17;;
17482;SDS011;8858;52.308;20.994;2023-02-08T12:01:44;8.13;;;5.40;;
17482;SDS011;8858;52.308;20.994;2023-02-08T12:04:14;7.00;;;5.03;;
17482;SDS011;8858;52.308;20.994;2023-02-08T12:09:56;10.63;;;8.40;;
17482;SDS011;8858;52.308;20.994;2023-02-08T12:12:39;12.20;;;8.40;;
17482;SDS011;8858;52.308;20.994;2023-02-08T12:15:23;11.40;;;7.83;;
17482;SDS011;8858;52.308;20.994;2023-02-08T12:21:13;9.03;;;7.03;;
17482;SDS011;8858;52.308;20.994;2023-02-08T12:23:46;10.53;;;8.27;;
17482;SDS011;8858;52.308;20.994;2023-02-08T12:26:23;14.37;;;8.73;;
17482;SDS011;8858;52.308;20.994;2023-02-08T12:29:09;11.30;;;8.77;;
17482;SDS011;8858;52.308;20.994;2023-02-08T12:32:05;11.97;;;8.13;;
17482;SDS011;8858;52.308;20.994;2023-02-08T12:34:56;13.70;;;8.13;;
17482;SDS011;8858;52.308;20.994;2023-02-08T12:38:05;13.93;;;8.20;;
17482;SDS011;8858;52.308;20.994;2023-02-08T12:41:00;13.80;;;8.20;;
17482;SDS011;8858;52.308;20.994;2023-02-08T12:43:43;13.17;;;8.03;;
17482;SDS011;8858;52.308;20.994;2023-02-08T12:46:20;13.87;;;9.23;;
17482;SDS011;8858;52.308;20.994;2023-02-08T12:52:01;12.93;;;8.23;;
17482;SDS011;8858;52.308;20.994;2023-02-08T12:54:44;14.70;;;8.30;;
17482;SDS011;8858;52.308;20.994;2023-02-08T12:57:17;10.70;;;7.80;;
17482;SDS011;8858;52.308;20.994;2023-02-08T12:59:52;9.93;;;8.17;;
17482;SDS011;8858;52.308;20.994;2023-02-08T13:02:25;9.90;;;7.63;;
17482;SDS011;8858;52.308;20.994;2023-02-08T13:04:59;8.23;;;5.63;;
17482;SDS011;8858;52.308;20.994;2023-02-08T13:07:32;7.30;;;5.30;;
17482;SDS011;8858;52.308;20.994;2023-02-08T13:10:07;8.17;;;5.03;;
17482;SDS011;8858;52.308;20.994;2023-02-08T13:12:46;5.87;;;5.07;;
17482;SDS011;8858;52.308;20.994;2023-02-08T13:15:19;7.87;;;5.33;;
17482;SDS011;8858;52.308;20.994;2023-02-08T13:18:10;7.43;;;4.57;;
17482;SDS011;8858;52.308;20.994;2023-02-08T13:20:44;8.20;;;4.50;;
17482;SDS011;8858;52.308;20.994;2023-02-08T13:23:18;5.00;;;4.40;;
17482;SDS011;8858;52.308;20.994;2023-02-08T13:25:53;6.40;;;4.60;;
17482;SDS011;8858;52.308;20.994;2023-02-08T13:28:27;10.90;;;5.23;;
17482;SDS011;8858;52.308;20.994;2023-02-08T13:30:58;6.27;;;4.63;;
17482;SDS011;8858;52.308;20.994;2023-02-08T13:33:34;8.73;;;5.20;;
17482;SDS011;8858;52.308;20.994;2023-02-08T13:36:29;6.03;;;4.73;;
17482;SDS011;8858;52.308;20.994;2023-02-08T13:39:01;5.67;;;4.50;;
17482;SDS011;8858;52.308;20.994;2023-02-08T13:41:33;4.93;;;4.40;;
17482;SDS011;8858;52.308;20.994;2023-02-08T13:44:06;4.70;;;4.20;;
17482;SDS011;8858;52.308;20.994;2023-02-08T13:46:36;5.53;;;4.53;;
17482;SDS011;8858;52.308;20.994;2023-02-08T13:55:39;7.13;;;5.03;;
17482;SDS011;8858;52.308;20.994;2023-02-08T13:58:33;6.60;;;4.73;;
17482;SDS011;8858;52.308;20.994;2023-02-08T14:01:07;5.63;;;4.40;;
17482;SDS011;8858;52.308;20.994;2023-02-08T14:06:58;7.50;;;4.70;;
17482;SDS011;8858;52.308;20.994;2023-02-08T14:09:35;6.73;;;5.07;;
17482;SDS011;8858;52.308;20.994;2023-02-08T14:12:12;7.30;;;5.10;;
17482;SDS011;8858;52.308;20.994;2023-02-08T14:15:05;6.77;;;5.10;;
17482;SDS011;8858;52.308;20.994;2023-02-08T14:17:51;7.60;;;5.27;;
17482;SDS011;8858;52.308;20.994;2023-02-08T14:20:25;7.30;;;5.37;;
17482;SDS011;8858;52.308;20.994;2023-02-08T14:23:00;6.60;;;5.20;;
17482;SDS011;8858;52.308;20.994;2023-02-08T14:25:37;8.97;;;5.57;;
17482;SDS011;8858;52.308;20.994;2023-02-08T14:28:22;7.57;;;5.13;;
17482;SDS011;8858;52.308;20.994;2023-02-08T14:30:55;7.20;;;5.30;;
17482;SDS011;8858;52.308;20.994;2023-02-08T14:33:27;7.23;;;5.33;;
17482;SDS011;8858;52.308;20.994;2023-02-08T14:36:00;7.47;;;5.60;;
17482;SDS011;8858;52.308;20.994;2023-02-08T14:38:32;8.10;;;5.53;;
17482;SDS011;8858;52.308;20.994;2023-02-08T14:41:40;9.87;;;5.90;;
17482;SDS011;8858;52.308;20.994;2023-02-08T14:50:41;10.50;;;7.30;;
17482;SDS011;8858;52.308;20.994;2023-02-08T14:53:20;8.27;;;5.97;;
17482;SDS011;8858;52.308;20.994;2023-02-08T14:56:00;10.30;;;6.47;;
17482;SDS011;8858;52.308;20.994;2023-02-08T14:58:36;16.33;;;10.30;;
17482;SDS011;8858;52.308;20.994;2023-02-08T15:01:11;9.60;;;6.47;;
17482;SDS011;8858;52.308;20.994;2023-02-08T15:03:49;13.30;;;9.67;;
17482;SDS011;8858;52.308;20.994;2023-02-08T15:09:43;12.87;;;8.27;;
17482;SDS011;8858;52.308;20.994;2023-02-08T15:12:13;10.07;;;7.00;;
17482;SDS011;8858;52.308;20.994;2023-02-08T15:14:48;11.50;;;6.80;;
17482;SDS011;8858;52.308;20.994;2023-02-08T15:17:19;10.00;;;6.73;;
17482;SDS011;8858;52.308;20.994;2023-02-08T15:19:54;9.20;;;6.67;;
17482;SDS011;8858;52.308;20.994;2023-02-08T15:22:31;11.90;;;7.60;;
17482;SDS011;8858;52.308;20.994;2023-02-08T15:25:19;14.73;;;7.63;;
17482;SDS011;8858;52.308;20.994;2023-02-08T15:27:50;11.17;;;7.73;;
17482;SDS011;8858;52.308;20.994;2023-02-08T15:30:26;11.53;;;7.40;;
17482;SDS011;8858;52.308;20.994;2023-02-08T15:33:00;9.23;;;7.17;;
17482;SDS011;8858;52.308;20.994;2023-02-08T15:35:30;11.37;;;7.67;;
17482;SDS011;8858;52.308;20.994;2023-02-08T15:38:00;11.83;;;7.70;;
17482;SDS011;8858;52.308;20.994;2023-02-08T15:40:33;11.53;;;7.87;;
17482;SDS011;8858;52.308;20.994;2023-02-08T15:43:03;12.57;;;7.83;;
17482;SDS011;8858;52.308;20.994;2023-02-08T15:45:37;13.80;;;7.63;;